sensor_id;sensor_type;location;lat;lon;timestamp;temperature;humidity
65707;SHT31;52423;43.512;5.220;2024-01-30T00:00:36;8.56;74.65
65707;SHT31;52423;43.512;5.220;2024-01-30T00:03:02;8.53;74.44
65707;SHT31;52423;43.512;5.220;2024-01-30T00:05:27;8.48;74.93
65707;SHT31;52423;43.512;5.220;2024-01-30T00:07:53;8.42;75.24
65707;SHT31;52423;43.512;5.220;2024-01-30T00:10:18;8.42;74.33
65707;SHT31;52423;43.512;5.220;2024-01-30T00:12:43;8.34;74.30
65707;SHT31;52423;43.512;5.220;2024-01-30T00:15:09;8.39;74.44
65707;SHT31;52423;43.512;5.220;2024-01-30T00:17:36;8.37;75.07
65707;SHT31;52423;43.512;5.220;2024-01-30T00:20:02;8.32;75.27
65707;SHT31;52423;43.512;5.220;2024-01-30T00:22:30;8.21;75.43
65707;SHT31;52423;43.512;5.220;2024-01-30T00:24:56;8.12;75.84
65707;SHT31;52423;43.512;5.220;2024-01-30T00:27:21;8.15;75.52
65707;SHT31;52423;43.512;5.220;2024-01-30T00:29:47;8.17;74.90
65707;SHT31;52423;43.512;5.220;2024-01-30T00:32:12;8.15;75.19
65707;SHT31;52423;43.512;5.220;2024-01-30T00:34:37;8.25;74.39
65707;SHT31;52423;43.512;5.220;2024-01-30T00:37:03;8.25;74.62
65707;SHT31;52423;43.512;5.220;2024-01-30T00:39:28;8.32;74.06
65707;SHT31;52423;43.512;5.220;2024-01-30T00:41:54;8.25;74.10
65707;SHT31;52423;43.512;5.220;2024-01-30T00:44:19;8.22;74.65
65707;SHT31;52423;43.512;5.220;2024-01-30T00:46:45;8.24;74.43
65707;SHT31;52423;43.512;5.220;2024-01-30T00:49:10;8.21;74.23
65707;SHT31;52423;43.512;5.220;2024-01-30T00:51:36;8.20;74.46
65707;SHT31;52423;43.512;5.220;2024-01-30T00:54:01;8.17;74.37
65707;SHT31;52423;43.512;5.220;2024-01-30T00:56:28;8.10;75.00
65707;SHT31;52423;43.512;5.220;2024-01-30T00:58:53;8.01;75.34
65707;SHT31;52423;43.512;5.220;2024-01-30T01:01:19;8.02;75.05
65707;SHT31;52423;43.512;5.220;2024-01-30T01:03:44;8.11;74.44
65707;SHT31;52423;43.512;5.220;2024-01-30T01:06:10;8.04;75.37
65707;SHT31;52423;43.512;5.220;2024-01-30T01:08:36;8.11;74.34
65707;SHT31;52423;43.512;5.220;2024-01-30T01:11:01;8.12;74.24
65707;SHT31;52423;43.512;5.220;2024-01-30T01:13:27;8.04;74.96
65707;SHT31;52423;43.512;5.220;2024-01-30T01:15:53;8.07;74.30
65707;SHT31;52423;43.512;5.220;2024-01-30T01:18:18;8.11;74.09
65707;SHT31;52423;43.512;5.220;2024-01-30T01:20:43;8.11;74.11
65707;SHT31;52423;43.512;5.220;2024-01-30T01:23:09;7.98;74.88
65707;SHT31;52423;43.512;5.220;2024-01-30T01:25:34;8.04;73.98
65707;SHT31;52423;43.512;5.220;2024-01-30T01:27:59;8.01;74.45
65707;SHT31;52423;43.512;5.220;2024-01-30T01:30:26;7.93;74.93
65707;SHT31;52423;43.512;5.220;2024-01-30T01:32:52;7.98;74.22
65707;SHT31;52423;43.512;5.220;2024-01-30T01:35:21;7.95;73.85
65707;SHT31;52423;43.512;5.220;2024-01-30T01:37:48;7.93;74.12
65707;SHT31;52423;43.512;5.220;2024-01-30T01:40:22;7.86;74.87
65707;SHT31;52423;43.512;5.220;2024-01-30T01:42:52;7.83;74.73
65707;SHT31;52423;43.512;5.220;2024-01-30T01:45:18;7.76;75.65
65707;SHT31;52423;43.512;5.220;2024-01-30T01:47:45;7.76;75.24
65707;SHT31;52423;43.512;5.220;2024-01-30T01:50:13;7.74;75.03
65707;SHT31;52423;43.512;5.220;2024-01-30T01:52:40;7.86;74.45
65707;SHT31;52423;43.512;5.220;2024-01-30T01:55:06;7.79;74.43
65707;SHT31;52423;43.512;5.220;2024-01-30T01:57:33;7.81;74.65
65707;SHT31;52423;43.512;5.220;2024-01-30T02:00:00;7.80;74.36
65707;SHT31;52423;43.512;5.220;2024-01-30T02:02:26;7.84;74.22
65707;SHT31;52423;43.512;5.220;2024-01-30T02:04:56;7.86;74.07
65707;SHT31;52423;43.512;5.220;2024-01-30T02:07:22;7.91;73.73
65707;SHT31;52423;43.512;5.220;2024-01-30T02:09:47;7.93;73.33
65707;SHT31;52423;43.512;5.220;2024-01-30T02:12:13;7.93;73.16
65707;SHT31;52423;43.512;5.220;2024-01-30T02:14:48;7.93;73.01
65707;SHT31;52423;43.512;5.220;2024-01-30T02:17:15;7.94;72.80
65707;SHT31;52423;43.512;5.220;2024-01-30T02:19:40;7.95;72.67
65707;SHT31;52423;43.512;5.220;2024-01-30T02:22:05;7.89;72.87
65707;SHT31;52423;43.512;5.220;2024-01-30T02:24:31;7.86;72.90
65707;SHT31;52423;43.512;5.220;2024-01-30T02:26:57;7.80;72.86
65707;SHT31;52423;43.512;5.220;2024-01-30T02:29:22;7.76;72.93
65707;SHT31;52423;43.512;5.220;2024-01-30T02:31:47;7.70;73.26
65707;SHT31;52423;43.512;5.220;2024-01-30T02:34:13;7.66;73.69
65707;SHT31;52423;43.512;5.220;2024-01-30T02:36:42;7.69;73.06
65707;SHT31;52423;43.512;5.220;2024-01-30T02:39:08;7.74;72.54
65707;SHT31;52423;43.512;5.220;2024-01-30T02:41:33;7.70;72.61
65707;SHT31;52423;43.512;5.220;2024-01-30T02:43:59;7.67;72.63
65707;SHT31;52423;43.512;5.220;2024-01-30T02:46:24;7.69;72.55
65707;SHT31;52423;43.512;5.220;2024-01-30T02:48:50;7.60;72.76
65707;SHT31;52423;43.512;5.220;2024-01-30T02:51:16;7.59;72.67
65707;SHT31;52423;43.512;5.220;2024-01-30T02:53:42;7.59;72.69
65707;SHT31;52423;43.512;5.220;2024-01-30T02:56:07;7.52;72.96
65707;SHT31;52423;43.512;5.220;2024-01-30T02:58:38;7.52;72.47
65707;SHT31;52423;43.512;5.220;2024-01-30T03:01:04;7.56;72.39
65707;SHT31;52423;43.512;5.220;2024-01-30T03:03:29;7.58;72.43
65707;SHT31;52423;43.512;5.220;2024-01-30T03:05:54;7.60;72.06
65707;SHT31;52423;43.512;5.220;2024-01-30T03:08:20;7.59;72.08
65707;SHT31;52423;43.512;5.220;2024-01-30T03:10:46;7.63;71.48
65707;SHT31;52423;43.512;5.220;2024-01-30T03:13:11;7.55;72.23
65707;SHT31;52423;43.512;5.220;2024-01-30T03:15:37;7.59;71.75
65707;SHT31;52423;43.512;5.220;2024-01-30T03:18:02;7.60;71.67
65707;SHT31;52423;43.512;5.220;2024-01-30T03:20:29;7.59;71.84
65707;SHT31;52423;43.512;5.220;2024-01-30T03:22:55;7.56;71.66
65707;SHT31;52423;43.512;5.220;2024-01-30T03:25:20;7.55;71.60
65707;SHT31;52423;43.512;5.220;2024-01-30T03:27:46;7.49;71.80
65707;SHT31;52423;43.512;5.220;2024-01-30T03:30:11;7.52;71.57
65707;SHT31;52423;43.512;5.220;2024-01-30T03:32:37;7.50;71.57
65707;SHT31;52423;43.512;5.220;2024-01-30T03:35:02;7.45;71.83
65707;SHT31;52423;43.512;5.220;2024-01-30T03:37:28;7.43;71.87
65707;SHT31;52423;43.512;5.220;2024-01-30T03:39:53;7.38;71.98
65707;SHT31;52423;43.512;5.220;2024-01-30T03:42:18;7.36;72.01
65707;SHT31;52423;43.512;5.220;2024-01-30T03:44:44;7.36;72.22
65707;SHT31;52423;43.512;5.220;2024-01-30T03:47:09;7.36;72.14
65707;SHT31;52423;43.512;5.220;2024-01-30T03:49:34;7.39;72.11
65707;SHT31;52423;43.512;5.220;2024-01-30T03:52:00;7.40;71.53
65707;SHT31;52423;43.512;5.220;2024-01-30T03:54:25;7.36;72.12
65707;SHT31;52423;43.512;5.220;2024-01-30T03:56:51;7.39;71.60
65707;SHT31;52423;43.512;5.220;2024-01-30T03:59:16;7.36;71.80
65707;SHT31;52423;43.512;5.220;2024-01-30T04:01:43;7.36;71.36
65707;SHT31;52423;43.512;5.220;2024-01-30T04:04:08;7.30;71.39
65707;SHT31;52423;43.512;5.220;2024-01-30T04:06:33;7.23;71.82
65707;SHT31;52423;43.512;5.220;2024-01-30T04:08:59;7.26;71.70
65707;SHT31;52423;43.512;5.220;2024-01-30T04:11:24;7.19;71.93
65707;SHT31;52423;43.512;5.220;2024-01-30T04:13:50;7.14;72.32
65707;SHT31;52423;43.512;5.220;2024-01-30T04:16:21;7.14;72.49
65707;SHT31;52423;43.512;5.220;2024-01-30T04:18:47;7.14;72.30
65707;SHT31;52423;43.512;5.220;2024-01-30T04:21:13;7.14;72.08
65707;SHT31;52423;43.512;5.220;2024-01-30T04:23:40;7.09;72.29
65707;SHT31;52423;43.512;5.220;2024-01-30T04:26:05;7.09;72.20
65707;SHT31;52423;43.512;5.220;2024-01-30T04:28:31;7.11;72.09
65707;SHT31;52423;43.512;5.220;2024-01-30T04:30:56;7.08;72.01
65707;SHT31;52423;43.512;5.220;2024-01-30T04:33:22;7.07;72.17
65707;SHT31;52423;43.512;5.220;2024-01-30T04:35:47;6.99;72.72
65707;SHT31;52423;43.512;5.220;2024-01-30T04:38:13;7.04;72.53
65707;SHT31;52423;43.512;5.220;2024-01-30T04:40:40;7.05;72.39
65707;SHT31;52423;43.512;5.220;2024-01-30T04:43:05;7.04;72.35
65707;SHT31;52423;43.512;5.220;2024-01-30T04:45:30;7.05;72.20
65707;SHT31;52423;43.512;5.220;2024-01-30T04:47:56;6.97;72.74
65707;SHT31;52423;43.512;5.220;2024-01-30T04:50:21;7.02;72.32
65707;SHT31;52423;43.512;5.220;2024-01-30T04:52:47;7.01;72.27
65707;SHT31;52423;43.512;5.220;2024-01-30T04:55:12;7.01;72.37
65707;SHT31;52423;43.512;5.220;2024-01-30T04:57:38;6.97;72.41
65707;SHT31;52423;43.512;5.220;2024-01-30T05:00:03;6.91;72.76
65707;SHT31;52423;43.512;5.220;2024-01-30T05:02:30;6.95;72.38
65707;SHT31;52423;43.512;5.220;2024-01-30T05:04:56;6.92;72.97
65707;SHT31;52423;43.512;5.220;2024-01-30T05:07:21;6.94;72.41
65707;SHT31;52423;43.512;5.220;2024-01-30T05:09:47;6.94;72.38
65707;SHT31;52423;43.512;5.220;2024-01-30T05:12:12;6.94;72.55
65707;SHT31;52423;43.512;5.220;2024-01-30T05:14:37;6.85;72.50
65707;SHT31;52423;43.512;5.220;2024-01-30T05:17:03;6.88;72.81
65707;SHT31;52423;43.512;5.220;2024-01-30T05:19:28;6.88;72.74
65707;SHT31;52423;43.512;5.220;2024-01-30T05:21:54;6.91;72.82
65707;SHT31;52423;43.512;5.220;2024-01-30T05:24:19;6.92;72.98
65707;SHT31;52423;43.512;5.220;2024-01-30T05:26:45;6.91;72.91
65707;SHT31;52423;43.512;5.220;2024-01-30T05:29:10;6.95;72.46
65707;SHT31;52423;43.512;5.220;2024-01-30T05:31:36;6.98;72.41
65707;SHT31;52423;43.512;5.220;2024-01-30T05:34:01;6.94;72.96
65707;SHT31;52423;43.512;5.220;2024-01-30T05:36:27;7.01;72.63
65707;SHT31;52423;43.512;5.220;2024-01-30T05:38:52;6.97;72.39
65707;SHT31;52423;43.512;5.220;2024-01-30T05:41:18;6.97;72.56
65707;SHT31;52423;43.512;5.220;2024-01-30T05:43:43;6.97;72.87
65707;SHT31;52423;43.512;5.220;2024-01-30T05:46:09;6.99;71.94
65707;SHT31;52423;43.512;5.220;2024-01-30T05:48:34;6.98;72.36
65707;SHT31;52423;43.512;5.220;2024-01-30T05:51:01;6.95;72.08
65707;SHT31;52423;43.512;5.220;2024-01-30T05:53:27;6.94;72.44
65707;SHT31;52423;43.512;5.220;2024-01-30T05:55:52;6.97;71.70
65707;SHT31;52423;43.512;5.220;2024-01-30T05:58:17;6.88;71.96
65707;SHT31;52423;43.512;5.220;2024-01-30T06:00:43;6.85;71.98
65707;SHT31;52423;43.512;5.220;2024-01-30T06:03:08;6.81;72.24
65707;SHT31;52423;43.512;5.220;2024-01-30T06:05:34;6.84;72.22
65707;SHT31;52423;43.512;5.220;2024-01-30T06:07:59;6.83;71.79
65707;SHT31;52423;43.512;5.220;2024-01-30T06:10:24;6.85;71.91
65707;SHT31;52423;43.512;5.220;2024-01-30T06:12:50;6.81;71.89
65707;SHT31;52423;43.512;5.220;2024-01-30T06:15:15;6.76;72.29
65707;SHT31;52423;43.512;5.220;2024-01-30T06:17:41;6.70;72.21
65707;SHT31;52423;43.512;5.220;2024-01-30T06:20:06;6.70;72.21
65707;SHT31;52423;43.512;5.220;2024-01-30T06:22:32;6.74;71.39
65707;SHT31;52423;43.512;5.220;2024-01-30T06:24:57;6.71;71.48
65707;SHT31;52423;43.512;5.220;2024-01-30T06:27:23;6.71;71.52
65707;SHT31;52423;43.512;5.220;2024-01-30T06:29:48;6.73;71.28
65707;SHT31;52423;43.512;5.220;2024-01-30T06:32:14;6.67;71.33
65707;SHT31;52423;43.512;5.220;2024-01-30T06:34:40;6.61;72.03
65707;SHT31;52423;43.512;5.220;2024-01-30T06:37:06;6.63;71.56
65707;SHT31;52423;43.512;5.220;2024-01-30T06:39:31;6.67;71.46
65707;SHT31;52423;43.512;5.220;2024-01-30T06:41:57;6.68;70.97
65707;SHT31;52423;43.512;5.220;2024-01-30T06:44:22;6.67;70.65
65707;SHT31;52423;43.512;5.220;2024-01-30T06:46:48;6.68;70.31
65707;SHT31;52423;43.512;5.220;2024-01-30T06:49:13;6.67;70.43
65707;SHT31;52423;43.512;5.220;2024-01-30T06:51:38;6.64;70.32
65707;SHT31;52423;43.512;5.220;2024-01-30T06:54:04;6.60;70.57
65707;SHT31;52423;43.512;5.220;2024-01-30T06:56:30;6.58;70.44
65707;SHT31;52423;43.512;5.220;2024-01-30T06:58:55;6.57;70.53
65707;SHT31;52423;43.512;5.220;2024-01-30T07:01:21;6.60;70.33
65707;SHT31;52423;43.512;5.220;2024-01-30T07:03:52;6.61;70.03
65707;SHT31;52423;43.512;5.220;2024-01-30T07:06:17;6.54;70.65
65707;SHT31;52423;43.512;5.220;2024-01-30T07:08:43;6.61;70.95
65707;SHT31;52423;43.512;5.220;2024-01-30T07:11:08;6.64;69.91
65707;SHT31;52423;43.512;5.220;2024-01-30T07:13:34;6.61;70.59
65707;SHT31;52423;43.512;5.220;2024-01-30T07:15:59;6.63;70.25
65707;SHT31;52423;43.512;5.220;2024-01-30T07:18:25;6.56;70.41
65707;SHT31;52423;43.512;5.220;2024-01-30T07:20:50;6.56;70.66
65707;SHT31;52423;43.512;5.220;2024-01-30T07:23:16;6.56;70.50
65707;SHT31;52423;43.512;5.220;2024-01-30T07:25:43;6.53;71.12
65707;SHT31;52423;43.512;5.220;2024-01-30T07:28:10;6.57;70.50
65707;SHT31;52423;43.512;5.220;2024-01-30T07:30:36;6.64;70.35
65707;SHT31;52423;43.512;5.220;2024-01-30T07:33:02;6.64;70.04
65707;SHT31;52423;43.512;5.220;2024-01-30T07:35:27;6.68;70.11
65707;SHT31;52423;43.512;5.220;2024-01-30T07:37:53;6.71;69.67
65707;SHT31;52423;43.512;5.220;2024-01-30T07:40:18;6.67;70.57
65707;SHT31;52423;43.512;5.220;2024-01-30T07:42:43;6.78;70.08
65707;SHT31;52423;43.512;5.220;2024-01-30T07:45:09;6.91;69.97
65707;SHT31;52423;43.512;5.220;2024-01-30T07:47:35;7.07;69.85
65707;SHT31;52423;43.512;5.220;2024-01-30T07:50:00;7.23;68.85
65707;SHT31;52423;43.512;5.220;2024-01-30T07:52:25;7.42;68.53
65707;SHT31;52423;43.512;5.220;2024-01-30T07:54:51;7.59;67.49
65707;SHT31;52423;43.512;5.220;2024-01-30T07:57:17;7.81;66.86
65707;SHT31;52423;43.512;5.220;2024-01-30T07:59:43;8.00;66.59
65707;SHT31;52423;43.512;5.220;2024-01-30T08:02:12;8.17;65.96
65707;SHT31;52423;43.512;5.220;2024-01-30T08:04:38;8.37;64.98
65707;SHT31;52423;43.512;5.220;2024-01-30T08:07:04;8.48;64.89
65707;SHT31;52423;43.512;5.220;2024-01-30T08:09:29;8.66;63.87
65707;SHT31;52423;43.512;5.220;2024-01-30T08:11:55;8.80;63.84
65707;SHT31;52423;43.512;5.220;2024-01-30T08:14:20;8.75;64.23
65707;SHT31;52423;43.512;5.220;2024-01-30T08:16:46;8.80;63.76
65707;SHT31;52423;43.512;5.220;2024-01-30T08:19:11;8.96;63.33
65707;SHT31;52423;43.512;5.220;2024-01-30T08:21:37;9.06;62.73
65707;SHT31;52423;43.512;5.220;2024-01-30T08:24:05;9.10;62.62
65707;SHT31;52423;43.512;5.220;2024-01-30T08:26:32;9.16;62.89
65707;SHT31;52423;43.512;5.220;2024-01-30T08:28:57;9.28;62.42
65707;SHT31;52423;43.512;5.220;2024-01-30T08:31:22;9.34;62.00
65707;SHT31;52423;43.512;5.220;2024-01-30T08:33:48;9.44;62.64
65707;SHT31;52423;43.512;5.220;2024-01-30T08:36:14;9.51;62.82
65707;SHT31;52423;43.512;5.220;2024-01-30T08:38:39;9.62;62.86
65707;SHT31;52423;43.512;5.220;2024-01-30T08:41:04;9.88;62.19
65707;SHT31;52423;43.512;5.220;2024-01-30T08:43:30;10.06;60.36
65707;SHT31;52423;43.512;5.220;2024-01-30T08:45:59;10.20;60.24
65707;SHT31;52423;43.512;5.220;2024-01-30T08:48:24;10.23;60.62
65707;SHT31;52423;43.512;5.220;2024-01-30T08:50:50;10.40;59.78
65707;SHT31;52423;43.512;5.220;2024-01-30T08:53:16;10.42;60.53
65707;SHT31;52423;43.512;5.220;2024-01-30T08:55:41;10.44;60.55
65707;SHT31;52423;43.512;5.220;2024-01-30T08:58:06;10.50;60.59
65707;SHT31;52423;43.512;5.220;2024-01-30T09:00:32;10.61;59.72
65707;SHT31;52423;43.512;5.220;2024-01-30T09:02:57;10.71;60.99
65707;SHT31;52423;43.512;5.220;2024-01-30T09:05:22;10.81;59.26
65707;SHT31;52423;43.512;5.220;2024-01-30T09:07:48;10.92;58.61
65707;SHT31;52423;43.512;5.220;2024-01-30T09:10:13;10.94;60.97
65707;SHT31;52423;43.512;5.220;2024-01-30T09:12:39;11.07;59.60
65707;SHT31;52423;43.512;5.220;2024-01-30T09:15:04;11.16;59.45
65707;SHT31;52423;43.512;5.220;2024-01-30T09:17:30;11.18;59.95
65707;SHT31;52423;43.512;5.220;2024-01-30T09:19:56;11.05;59.64
65707;SHT31;52423;43.512;5.220;2024-01-30T09:22:21;10.98;60.74
65707;SHT31;52423;43.512;5.220;2024-01-30T09:24:46;10.87;61.60
65707;SHT31;52423;43.512;5.220;2024-01-30T09:27:12;10.84;61.41
65707;SHT31;52423;43.512;5.220;2024-01-30T09:29:37;10.85;61.59
65707;SHT31;52423;43.512;5.220;2024-01-30T09:32:04;10.81;62.50
65707;SHT31;52423;43.512;5.220;2024-01-30T09:34:30;10.85;61.94
65707;SHT31;52423;43.512;5.220;2024-01-30T09:36:55;11.02;61.70
65707;SHT31;52423;43.512;5.220;2024-01-30T09:39:20;11.16;61.32
65707;SHT31;52423;43.512;5.220;2024-01-30T09:41:56;11.31;61.01
65707;SHT31;52423;43.512;5.220;2024-01-30T09:44:25;11.53;60.57
65707;SHT31;52423;43.512;5.220;2024-01-30T09:46:51;11.73;60.45
65707;SHT31;52423;43.512;5.220;2024-01-30T09:49:16;11.91;60.13
65707;SHT31;52423;43.512;5.220;2024-01-30T09:51:44;12.07;59.79
65707;SHT31;52423;43.512;5.220;2024-01-30T09:54:14;12.27;59.53
65707;SHT31;52423;43.512;5.220;2024-01-30T09:56:39;12.44;59.20
65707;SHT31;52423;43.512;5.220;2024-01-30T09:59:04;12.49;59.22
65707;SHT31;52423;43.512;5.220;2024-01-30T10:01:31;12.51;58.49
65707;SHT31;52423;43.512;5.220;2024-01-30T10:03:56;12.55;58.48
65707;SHT31;52423;43.512;5.220;2024-01-30T10:06:24;12.54;58.94
65707;SHT31;52423;43.512;5.220;2024-01-30T10:08:50;12.55;59.27
65707;SHT31;52423;43.512;5.220;2024-01-30T10:11:15;12.63;60.13
65707;SHT31;52423;43.512;5.220;2024-01-30T10:13:41;12.66;60.97
65707;SHT31;52423;43.512;5.220;2024-01-30T10:16:06;12.69;61.14
65707;SHT31;52423;43.512;5.220;2024-01-30T10:18:32;12.66;60.65
65707;SHT31;52423;43.512;5.220;2024-01-30T10:20:58;12.65;61.12
65707;SHT31;52423;43.512;5.220;2024-01-30T10:23:24;12.72;59.87
65707;SHT31;52423;43.512;5.220;2024-01-30T10:25:51;12.71;60.96
65707;SHT31;52423;43.512;5.220;2024-01-30T10:28:17;12.72;61.60
65707;SHT31;52423;43.512;5.220;2024-01-30T10:30:42;12.78;62.02
65707;SHT31;52423;43.512;5.220;2024-01-30T10:33:07;12.76;61.32
65707;SHT31;52423;43.512;5.220;2024-01-30T10:35:33;12.81;62.58
65707;SHT31;52423;43.512;5.220;2024-01-30T10:37:59;12.86;62.29
65707;SHT31;52423;43.512;5.220;2024-01-30T10:40:28;12.89;61.79
65707;SHT31;52423;43.512;5.220;2024-01-30T10:42:55;12.86;63.20
65707;SHT31;52423;43.512;5.220;2024-01-30T10:45:22;12.83;61.95
65707;SHT31;52423;43.512;5.220;2024-01-30T10:47:53;12.82;62.07
65707;SHT31;52423;43.512;5.220;2024-01-30T10:50:20;12.83;62.60
65707;SHT31;52423;43.512;5.220;2024-01-30T10:52:46;12.85;63.45
65707;SHT31;52423;43.512;5.220;2024-01-30T10:55:13;12.83;63.92
65707;SHT31;52423;43.512;5.220;2024-01-30T10:57:39;12.81;63.79
65707;SHT31;52423;43.512;5.220;2024-01-30T11:00:07;12.89;64.11
65707;SHT31;52423;43.512;5.220;2024-01-30T11:02:46;12.99;63.63
65707;SHT31;52423;43.512;5.220;2024-01-30T11:05:12;13.10;64.61
65707;SHT31;52423;43.512;5.220;2024-01-30T11:07:39;13.16;66.06
65707;SHT31;52423;43.512;5.220;2024-01-30T11:10:08;13.28;64.76
65707;SHT31;52423;43.512;5.220;2024-01-30T11:12:39;13.24;64.88
65707;SHT31;52423;43.512;5.220;2024-01-30T11:15:07;13.22;66.83
65707;SHT31;52423;43.512;5.220;2024-01-30T11:20:34;12.76;68.92
65707;SHT31;52423;43.512;5.220;2024-01-30T11:23:01;12.72;67.83
65707;SHT31;52423;43.512;5.220;2024-01-30T11:25:31;12.73;69.74
65707;SHT31;52423;43.512;5.220;2024-01-30T11:27:57;12.73;70.14
65707;SHT31;52423;43.512;5.220;2024-01-30T11:30:32;12.72;69.80
65707;SHT31;52423;43.512;5.220;2024-01-30T11:33:10;12.78;70.47
65707;SHT31;52423;43.512;5.220;2024-01-30T11:35:41;12.76;70.90
65707;SHT31;52423;43.512;5.220;2024-01-30T11:38:08;12.99;71.09
65707;SHT31;52423;43.512;5.220;2024-01-30T11:40:37;13.17;70.00
65707;SHT31;52423;43.512;5.220;2024-01-30T11:43:04;13.22;68.10
65707;SHT31;52423;43.512;5.220;2024-01-30T11:45:30;13.32;66.64
65707;SHT31;52423;43.512;5.220;2024-01-30T11:47:56;13.40;66.36
65707;SHT31;52423;43.512;5.220;2024-01-30T11:50:23;13.40;66.45
65707;SHT31;52423;43.512;5.220;2024-01-30T11:52:50;13.54;67.55
65707;SHT31;52423;43.512;5.220;2024-01-30T11:55:15;13.57;67.59
65707;SHT31;52423;43.512;5.220;2024-01-30T11:57:41;13.54;65.86
65707;SHT31;52423;43.512;5.220;2024-01-30T12:00:14;13.44;65.77
65707;SHT31;52423;43.512;5.220;2024-01-30T12:02:40;13.46;66.00
65707;SHT31;52423;43.512;5.220;2024-01-30T12:05:07;13.46;66.01
65707;SHT31;52423;43.512;5.220;2024-01-30T12:07:33;13.41;65.80
65707;SHT31;52423;43.512;5.220;2024-01-30T12:09:58;13.46;65.76
65707;SHT31;52423;43.512;5.220;2024-01-30T12:12:25;13.53;67.21
65707;SHT31;52423;43.512;5.220;2024-01-30T12:14:51;13.54;65.59
65707;SHT31;52423;43.512;5.220;2024-01-30T12:17:42;13.57;66.62
65707;SHT31;52423;43.512;5.220;2024-01-30T12:20:10;13.65;66.78
65707;SHT31;52423;43.512;5.220;2024-01-30T12:22:43;13.70;67.00
65707;SHT31;52423;43.512;5.220;2024-01-30T12:25:10;13.72;66.91
65707;SHT31;52423;43.512;5.220;2024-01-30T12:27:36;13.75;66.98
65707;SHT31;52423;43.512;5.220;2024-01-30T12:30:06;13.85;67.37
65707;SHT31;52423;43.512;5.220;2024-01-30T12:32:34;13.88;67.58
65707;SHT31;52423;43.512;5.220;2024-01-30T12:35:00;13.88;67.89
65707;SHT31;52423;43.512;5.220;2024-01-30T12:37:25;13.95;67.90
65707;SHT31;52423;43.512;5.220;2024-01-30T12:39:51;13.95;67.86
65707;SHT31;52423;43.512;5.220;2024-01-30T12:42:19;13.92;66.83
65707;SHT31;52423;43.512;5.220;2024-01-30T12:44:46;14.00;67.51
65707;SHT31;52423;43.512;5.220;2024-01-30T12:47:11;13.98;67.23
65707;SHT31;52423;43.512;5.220;2024-01-30T12:49:37;13.97;67.55
65707;SHT31;52423;43.512;5.220;2024-01-30T12:52:03;13.97;67.76
65707;SHT31;52423;43.512;5.220;2024-01-30T12:54:28;14.05;67.99
65707;SHT31;52423;43.512;5.220;2024-01-30T12:56:54;14.02;67.28
65707;SHT31;52423;43.512;5.220;2024-01-30T12:59:19;14.09;67.10
65707;SHT31;52423;43.512;5.220;2024-01-30T13:01:44;14.12;66.84
65707;SHT31;52423;43.512;5.220;2024-01-30T13:04:11;14.18;67.02
65707;SHT31;52423;43.512;5.220;2024-01-30T13:06:36;14.19;65.68
65707;SHT31;52423;43.512;5.220;2024-01-30T13:09:02;14.21;66.82
65707;SHT31;52423;43.512;5.220;2024-01-30T13:11:27;14.22;65.81
65707;SHT31;52423;43.512;5.220;2024-01-30T13:13:53;14.16;65.11
65707;SHT31;52423;43.512;5.220;2024-01-30T13:16:18;14.22;64.65
65707;SHT31;52423;43.512;5.220;2024-01-30T13:18:44;14.28;62.34
65707;SHT31;52423;43.512;5.220;2024-01-30T13:21:09;14.29;62.08
65707;SHT31;52423;43.512;5.220;2024-01-30T13:23:35;14.26;63.78
65707;SHT31;52423;43.512;5.220;2024-01-30T13:26:00;14.29;63.94
65707;SHT31;52423;43.512;5.220;2024-01-30T13:28:25;14.32;63.45
65707;SHT31;52423;43.512;5.220;2024-01-30T13:30:51;14.29;62.65
65707;SHT31;52423;43.512;5.220;2024-01-30T13:33:17;14.32;63.16
65707;SHT31;52423;43.512;5.220;2024-01-30T13:35:42;14.28;64.51
65707;SHT31;52423;43.512;5.220;2024-01-30T13:38:08;14.36;64.42
65707;SHT31;52423;43.512;5.220;2024-01-30T13:40:34;14.36;65.35
65707;SHT31;52423;43.512;5.220;2024-01-30T13:42:59;14.37;64.61
65707;SHT31;52423;43.512;5.220;2024-01-30T13:45:24;14.40;65.33
65707;SHT31;52423;43.512;5.220;2024-01-30T13:47:50;14.39;65.39
65707;SHT31;52423;43.512;5.220;2024-01-30T13:50:16;14.42;63.82
65707;SHT31;52423;43.512;5.220;2024-01-30T13:52:42;14.32;63.20
65707;SHT31;52423;43.512;5.220;2024-01-30T13:55:08;14.23;64.33
65707;SHT31;52423;43.512;5.220;2024-01-30T13:57:35;14.19;65.39
65707;SHT31;52423;43.512;5.220;2024-01-30T14:00:02;14.28;64.75
65707;SHT31;52423;43.512;5.220;2024-01-30T14:02:30;14.36;64.19
65707;SHT31;52423;43.512;5.220;2024-01-30T14:04:56;14.39;63.81
65707;SHT31;52423;43.512;5.220;2024-01-30T14:07:21;14.32;64.17
65707;SHT31;52423;43.512;5.220;2024-01-30T14:09:48;14.29;64.68
65707;SHT31;52423;43.512;5.220;2024-01-30T14:12:13;14.28;64.24
65707;SHT31;52423;43.512;5.220;2024-01-30T14:14:39;14.40;63.89
65707;SHT31;52423;43.512;5.220;2024-01-30T14:17:04;14.40;63.94
65707;SHT31;52423;43.512;5.220;2024-01-30T14:19:32;14.44;63.35
65707;SHT31;52423;43.512;5.220;2024-01-30T14:21:58;14.49;63.78
65707;SHT31;52423;43.512;5.220;2024-01-30T14:24:23;14.55;64.95
65707;SHT31;52423;43.512;5.220;2024-01-30T14:26:48;14.50;64.98
65707;SHT31;52423;43.512;5.220;2024-01-30T14:29:14;14.44;65.60
65707;SHT31;52423;43.512;5.220;2024-01-30T14:31:39;14.46;66.01
65707;SHT31;52423;43.512;5.220;2024-01-30T14:34:05;14.53;66.17
65707;SHT31;52423;43.512;5.220;2024-01-30T14:36:31;14.57;66.31
65707;SHT31;52423;43.512;5.220;2024-01-30T14:38:57;14.55;65.34
65707;SHT31;52423;43.512;5.220;2024-01-30T14:41:22;14.47;66.09
65707;SHT31;52423;43.512;5.220;2024-01-30T14:43:47;14.40;66.39
65707;SHT31;52423;43.512;5.220;2024-01-30T14:46:13;14.28;65.93
65707;SHT31;52423;43.512;5.220;2024-01-30T14:48:38;14.21;67.32
65707;SHT31;52423;43.512;5.220;2024-01-30T14:51:04;14.18;66.85
65707;SHT31;52423;43.512;5.220;2024-01-30T14:53:29;14.19;67.04
65707;SHT31;52423;43.512;5.220;2024-01-30T14:55:54;14.15;66.04
65707;SHT31;52423;43.512;5.220;2024-01-30T14:58:20;14.12;66.68
65707;SHT31;52423;43.512;5.220;2024-01-30T15:00:46;14.09;66.42
65707;SHT31;52423;43.512;5.220;2024-01-30T15:03:11;14.06;66.69
65707;SHT31;52423;43.512;5.220;2024-01-30T15:05:36;14.05;66.43
65707;SHT31;52423;43.512;5.220;2024-01-30T15:08:02;13.97;66.91
65707;SHT31;52423;43.512;5.220;2024-01-30T15:10:28;14.01;67.17
65707;SHT31;52423;43.512;5.220;2024-01-30T15:12:53;13.91;68.17
65707;SHT31;52423;43.512;5.220;2024-01-30T15:15:18;13.91;68.51
65707;SHT31;52423;43.512;5.220;2024-01-30T15:17:44;13.84;68.98
65707;SHT31;52423;43.512;5.220;2024-01-30T15:20:09;13.81;69.21
65707;SHT31;52423;43.512;5.220;2024-01-30T15:22:35;13.77;69.41
65707;SHT31;52423;43.512;5.220;2024-01-30T15:25:00;13.74;69.23
65707;SHT31;52423;43.512;5.220;2024-01-30T15:27:26;13.67;69.49
65707;SHT31;52423;43.512;5.220;2024-01-30T15:29:51;13.74;69.72
65707;SHT31;52423;43.512;5.220;2024-01-30T15:32:16;13.70;69.16
65707;SHT31;52423;43.512;5.220;2024-01-30T15:34:42;13.60;69.44